createdAt,value
2019-04-21T00:00:25.964Z,14.63
2019-04-21T00:03:00.665Z,14.27
2019-04-21T00:05:53.274Z,14.03
2019-04-21T00:08:39.538Z,15.57
2019-04-21T00:10:56.544Z,18.07
2019-04-21T00:13:25.337Z,14.47
2019-04-21T00:15:48.719Z,16.97
2019-04-21T00:18:19.089Z,16.87
2019-04-21T00:20:54.868Z,17.13
2019-04-21T00:23:41.281Z,16.87
2019-04-21T00:26:03.018Z,17.60
2019-04-21T00:28:53.762Z,17.50
2019-04-21T00:31:15.303Z,18.70
2019-04-21T00:33:37.087Z,20.77
2019-04-21T00:36:13.327Z,19.20
2019-04-21T00:39:08.105Z,21.50
2019-04-21T00:41:29.513Z,21.50
2019-04-21T00:43:58.177Z,21.33
2019-04-21T00:46:31.292Z,21.70
2019-04-21T00:49:09.520Z,23.13
2019-04-21T00:51:54.164Z,23.30
2019-04-21T00:54:27.764Z,22.50
2019-04-21T00:56:56.184Z,23.43
2019-04-21T00:59:25.823Z,22.87
2019-04-21T01:01:55.483Z,23.97
2019-04-21T01:04:30.713Z,22.50
2019-04-21T01:07:03.824Z,22.23
2019-04-21T01:09:29.049Z,21.63
2019-04-21T01:12:07.834Z,23.63
2019-04-21T01:14:41.958Z,22.90
2019-04-21T01:17:12.900Z,22.43
2019-04-21T01:19:39.784Z,22.57
2019-04-21T01:21:56.773Z,22.60
2019-04-21T01:24:33.227Z,22.17
2019-04-21T01:27:11.149Z,23.00
2019-04-21T01:29:58.328Z,22.93
2019-04-21T01:32:31.130Z,24.67
2019-04-21T01:35:00.747Z,26.77
2019-04-21T01:37:41.146Z,25.07
2019-04-21T01:40:14.495Z,24.73
2019-04-21T01:42:32.776Z,23.30
2019-04-21T01:45:14.656Z,24.57
2019-04-21T01:47:46.197Z,24.23
2019-04-21T01:50:15.129Z,24.63
2019-04-21T01:52:56.021Z,23.83
2019-04-21T01:55:45.405Z,25.00
2019-04-21T01:58:13.794Z,26.47
2019-04-21T02:00:54.332Z,26.37
2019-04-21T02:03:48.713Z,24.43
2019-04-21T02:06:07.127Z,24.10
2019-04-21T02:08:34.655Z,23.33
2019-04-21T02:11:12.558Z,24.10
2019-04-21T02:13:48.952Z,24.47
2019-04-21T02:16:13.295Z,23.50
2019-04-21T02:18:45.367Z,22.97
2019-04-21T02:21:04.377Z,23.83
2019-04-21T02:23:54.045Z,25.37
2019-04-21T02:26:22.634Z,24.50
2019-04-21T02:31:36.206Z,23.80
2019-04-21T02:34:09.301Z,23.20
2019-04-21T02:39:19.248Z,20.13
2019-04-21T02:41:47.397Z,20.43
2019-04-21T02:44:39.368Z,19.73
2019-04-21T02:47:00.540Z,19.37
2019-04-21T02:49:35.021Z,20.00
2019-04-21T02:52:01.316Z,19.37
2019-04-21T02:57:12.705Z,17.90
2019-04-21T02:59:42.482Z,17.43
2019-04-21T03:04:59.231Z,17.50
2019-04-21T03:07:49.267Z,18.63
2019-04-21T03:09:57.936Z,16.37
2019-04-21T03:12:32.075Z,17.77
2019-04-21T03:15:18.239Z,17.03
2019-04-21T03:20:18.995Z,16.47
2019-04-21T03:23:09.373Z,15.93
2019-04-21T03:25:43.245Z,15.13
2019-04-21T03:30:42.738Z,17.97
2019-04-21T03:38:03.041Z,16.93
2019-04-21T03:40:32.216Z,19.13
2019-04-21T03:43:12.513Z,15.97
2019-04-21T03:45:42.778Z,15.77
2019-04-21T03:48:21.858Z,17.60
2019-04-21T03:50:52.485Z,16.97
2019-04-21T03:53:25.028Z,15.37
2019-04-21T03:58:34.719Z,15.37
2019-04-21T04:07:04.026Z,16.90
2019-04-21T04:09:37.210Z,15.03
2019-04-21T04:12:05.265Z,15.93
2019-04-21T04:22:20.858Z,15.27
2019-04-21T04:24:57.530Z,14.33
2019-04-21T04:27:53.484Z,15.13
2019-04-21T04:29:59.434Z,16.37
2019-04-21T04:32:28.394Z,16.20
2019-04-21T04:35:05.597Z,15.63
2019-04-21T04:37:36.254Z,15.13
2019-04-21T04:40:20.940Z,16.47
2019-04-21T04:42:56.466Z,13.90
2019-04-21T04:47:59.171Z,16.67
2019-04-21T04:50:43.608Z,14.27
2019-04-21T04:53:03.572Z,16.17
2019-04-21T04:55:39.014Z,14.27
2019-04-21T04:58:29.633Z,17.97
2019-04-21T05:00:43.123Z,13.47
2019-04-21T05:03:29.621Z,13.43
2019-04-21T05:11:40.276Z,14.93
2019-04-21T05:16:41.120Z,15.03
2019-04-21T05:24:18.856Z,16.83
2019-04-21T05:26:27.440Z,13.43
2019-04-21T05:28:58.884Z,14.57
2019-04-21T05:31:56.193Z,13.37
2019-04-21T05:34:31.555Z,12.53
2019-04-21T05:37:14.275Z,12.87
2019-04-21T05:39:46.830Z,12.00
2019-04-21T05:42:11.035Z,13.43
2019-04-21T05:47:34.926Z,12.57
2019-04-21T05:50:02.417Z,12.63
2019-04-21T05:52:35.285Z,11.97
2019-04-21T05:55:18.174Z,12.87
2019-04-21T05:57:45.814Z,12.37
2019-04-21T06:00:23.612Z,12.23
2019-04-21T06:02:53.541Z,14.67
2019-04-21T06:05:28.593Z,16.90
2019-04-21T06:08:03.130Z,15.10
2019-04-21T06:10:36.196Z,11.60
2019-04-21T06:13:12.917Z,12.50
2019-04-21T06:15:47.190Z,11.77
2019-04-21T06:18:21.849Z,9.90
2019-04-21T06:20:47.731Z,20.83
2019-04-21T06:23:20.903Z,11.00
2019-04-21T06:28:28.399Z,11.77
2019-04-21T06:31:09.228Z,13.60
2019-04-21T06:36:24.062Z,10.93
2019-04-21T06:39:01.976Z,11.20
2019-04-21T06:41:29.678Z,10.40
2019-04-21T06:51:32.375Z,14.03
2019-04-21T06:54:10.007Z,11.53
2019-04-21T06:56:48.381Z,11.53
2019-04-21T06:59:09.889Z,9.90
2019-04-21T07:01:54.734Z,10.83
2019-04-21T07:04:25.252Z,10.90
2019-04-21T07:09:27.209Z,10.20
2019-04-21T07:11:56.277Z,13.37
2019-04-21T07:14:31.982Z,11.70
2019-04-21T07:17:08.021Z,12.83
2019-04-21T07:19:40.999Z,10.03
2019-04-21T07:22:13.564Z,10.07
2019-04-21T07:24:42.898Z,12.03
2019-04-21T07:27:18.972Z,10.50
2019-04-21T07:29:55.073Z,9.27
2019-04-21T07:32:20.687Z,12.30
2019-04-21T07:34:58.887Z,10.27
2019-04-21T07:37:30.643Z,11.70
2019-04-21T07:39:54.840Z,11.60
2019-04-21T07:42:29.295Z,10.20
2019-04-21T07:44:58.863Z,10.43
2019-04-21T07:47:46.067Z,8.83
2019-04-21T07:50:31.745Z,10.90
2019-04-21T07:53:19.514Z,9.23
2019-04-21T07:58:14.588Z,9.47
2019-04-21T08:00:51.350Z,9.30
2019-04-21T08:03:19.308Z,9.40
2019-04-21T08:05:53.012Z,8.87
2019-04-21T08:08:23.416Z,10.27
2019-04-21T08:10:57.362Z,10.67
2019-04-21T08:13:39.911Z,7.67
2019-04-21T08:16:09.416Z,8.30
2019-04-21T08:21:05.783Z,8.43
2019-04-21T08:23:55.218Z,7.90
2019-04-21T08:26:13.825Z,11.93
2019-04-21T08:28:49.451Z,7.70
2019-04-21T08:31:24.072Z,7.80
2019-04-21T08:34:01.689Z,8.27
2019-04-21T08:38:59.697Z,7.90
2019-04-21T08:41:31.609Z,7.10
2019-04-21T08:44:02.233Z,7.40
2019-04-21T08:46:38.702Z,6.97
2019-04-21T08:49:09.056Z,8.33
2019-04-21T08:51:50.414Z,6.77
2019-04-21T08:57:08.092Z,6.30
2019-04-21T08:59:44.474Z,7.03
2019-04-21T09:02:24.835Z,7.37
2019-04-21T09:04:52.479Z,6.23
2019-04-21T09:07:33.101Z,6.13
2019-04-21T09:09:57.531Z,5.87
2019-04-21T09:12:29.489Z,6.53
2019-04-21T09:15:01.557Z,8.97
2019-04-21T09:17:31.539Z,5.37
2019-04-21T09:20:17.030Z,4.37
2019-04-21T09:22:47.793Z,5.67
2019-04-21T09:25:29.148Z,6.90
2019-04-21T09:27:56.663Z,6.73
2019-04-21T09:30:13.019Z,4.27
2019-04-21T09:32:44.577Z,4.17
2019-04-21T09:35:17.345Z,5.07
2019-04-21T09:37:58.390Z,4.97
2019-04-21T09:40:31.322Z,4.53
2019-04-21T09:43:01.074Z,4.97
2019-04-21T09:45:28.592Z,4.83
2019-04-21T09:48:06.094Z,4.50
2019-04-21T09:50:34.505Z,5.80
2019-04-21T09:53:14.424Z,4.33
2019-04-21T09:55:46.572Z,4.60
2019-04-21T09:58:21.866Z,4.33
2019-04-21T10:00:56.635Z,3.70
2019-04-21T10:03:17.548Z,3.60
2019-04-21T10:05:48.145Z,3.83
2019-04-21T10:08:20.643Z,3.73
2019-04-21T10:10:51.564Z,4.00
2019-04-21T10:13:23.059Z,4.57
2019-04-21T10:16:01.222Z,4.00
2019-04-21T10:18:31.988Z,3.50
2019-04-21T10:21:03.229Z,3.90
2019-04-21T10:23:35.876Z,4.23
2019-04-21T10:26:06.824Z,4.83
2019-04-21T10:28:37.586Z,4.27
2019-04-21T10:31:09.021Z,3.30
2019-04-21T10:33:42.071Z,5.40
2019-04-21T10:36:13.103Z,3.87
2019-04-21T10:38:48.819Z,3.60
2019-04-21T10:41:17.290Z,3.60
2019-04-21T10:43:49.321Z,4.47
2019-04-21T10:46:22.390Z,4.07
2019-04-21T10:48:54.810Z,5.03
2019-04-21T10:51:25.740Z,3.63
2019-04-21T10:53:57.943Z,4.73
2019-04-21T10:56:34.374Z,3.53
2019-04-21T10:59:02.424Z,4.50
2019-04-21T11:01:34.753Z,3.57
2019-04-21T11:04:15.972Z,3.87
2019-04-21T11:06:39.887Z,3.80
2019-04-21T11:09:11.449Z,4.10
2019-04-21T11:11:45.973Z,3.57
2019-04-21T11:14:15.502Z,6.27
2019-04-21T11:16:49.054Z,4.13
2019-04-21T11:19:20.054Z,4.40
2019-04-21T11:21:51.005Z,4.40
2019-04-21T11:24:22.696Z,4.10
2019-04-21T11:26:53.930Z,4.07
2019-04-21T11:29:26.164Z,5.17
2019-04-21T11:31:57.285Z,4.33
2019-04-21T11:34:29.263Z,6.40
2019-04-21T11:37:00.061Z,4.20
2019-04-21T11:39:39.598Z,4.13
2019-04-21T11:42:05.941Z,4.40
2019-04-21T11:44:37.343Z,4.87
2019-04-21T11:47:10.282Z,4.03
2019-04-21T11:49:41.261Z,5.67
2019-04-21T11:52:13.283Z,4.13
2019-04-21T11:54:46.737Z,3.90
2019-04-21T11:57:24.014Z,4.40
2019-04-21T11:59:51.317Z,4.23
2019-04-21T12:02:23.561Z,4.10
2019-04-21T12:04:54.232Z,3.67
2019-04-21T12:07:25.183Z,4.10
2019-04-21T12:09:55.858Z,4.67
2019-04-21T12:12:27.494Z,3.60
2019-04-21T12:14:59.836Z,5.23
2019-04-21T12:17:31.985Z,4.73
2019-04-21T12:20:03.273Z,4.50
2019-04-21T12:22:35.660Z,4.00
2019-04-21T12:25:09.486Z,4.23
2019-04-21T12:27:41.592Z,4.07
2019-04-21T12:30:15.549Z,4.33
2019-04-21T12:32:51.937Z,4.47
2019-04-21T12:35:23.853Z,4.17
2019-04-21T12:37:55.051Z,4.93
2019-04-21T12:40:26.936Z,4.10
2019-04-21T12:42:58.791Z,4.67
2019-04-21T12:45:29.582Z,4.20
2019-04-21T12:48:02.049Z,4.30
2019-04-21T12:50:34.093Z,6.60
2019-04-21T12:53:05.470Z,4.60
2019-04-21T12:55:40.557Z,5.13
2019-04-21T12:58:08.831Z,4.70
2019-04-21T13:00:40.856Z,3.90
2019-04-21T13:03:12.037Z,4.07
2019-04-21T13:05:43.883Z,4.03
2019-04-21T13:08:15.448Z,3.97
2019-04-21T13:10:46.450Z,4.50
2019-04-21T13:13:17.664Z,4.17
2019-04-21T13:15:49.419Z,5.20
2019-04-21T13:18:20.564Z,4.40
2019-04-21T13:20:51.844Z,3.70
2019-04-21T13:23:23.213Z,5.20
2019-04-21T13:25:54.263Z,4.60
2019-04-21T13:28:25.348Z,4.20
2019-04-21T13:30:56.406Z,4.00
2019-04-21T13:33:27.175Z,4.10
2019-04-21T13:35:59.268Z,5.03
2019-04-21T13:38:37.763Z,4.97
2019-04-21T13:41:29.709Z,5.13
2019-04-21T13:43:50.941Z,4.00
2019-04-21T13:46:23.029Z,5.10
2019-04-21T13:48:54.803Z,4.27
2019-04-21T13:51:26.978Z,5.37
2019-04-21T13:53:58.046Z,3.63
2019-04-21T13:56:28.932Z,4.93
2019-04-21T13:59:00.139Z,3.87
2019-04-21T14:01:31.794Z,4.77
2019-04-21T14:04:02.781Z,5.43
2019-04-21T14:06:34.314Z,4.03
2019-04-21T14:09:10.413Z,4.40
2019-04-21T14:11:43.448Z,4.77
2019-04-21T14:14:14.743Z,4.10
2019-04-21T14:16:45.765Z,3.97
2019-04-21T14:19:17.312Z,4.20
2019-04-21T14:21:49.824Z,4.27
2019-04-21T14:24:20.743Z,3.63
2019-04-21T14:26:52.190Z,4.80
2019-04-21T14:29:23.817Z,4.17
2019-04-21T14:31:56.047Z,3.80
2019-04-21T14:34:28.033Z,4.77
2019-04-21T14:36:59.075Z,4.37
2019-04-21T14:39:30.388Z,4.13
2019-04-21T14:42:02.272Z,4.00
2019-04-21T14:44:33.283Z,3.77
2019-04-21T14:47:15.508Z,4.53
2019-04-21T14:50:07.371Z,4.53
2019-04-21T14:52:39.199Z,5.10
2019-04-21T14:55:22.900Z,5.10
2019-04-21T14:57:54.906Z,4.20
2019-04-21T15:00:31.277Z,4.60
2019-04-21T15:03:03.619Z,4.30
2019-04-21T15:05:35.553Z,4.30
2019-04-21T15:08:06.890Z,4.10
2019-04-21T15:10:38.917Z,3.93
2019-04-21T15:13:11.888Z,4.13
2019-04-21T15:15:43.708Z,3.80
2019-04-21T15:18:15.200Z,3.80
2019-04-21T15:20:48.636Z,4.20
2019-04-21T15:23:20.390Z,4.67
2019-04-21T15:25:52.410Z,5.10
2019-04-21T15:28:23.665Z,3.70
2019-04-21T15:30:54.847Z,4.00
2019-04-21T15:33:26.573Z,3.70
2019-04-21T15:35:57.666Z,4.00
2019-04-21T15:38:29.747Z,4.50
2019-04-21T15:41:04.493Z,4.03
2019-04-21T15:43:33.546Z,4.77
2019-04-21T15:46:04.719Z,4.23
2019-04-21T15:48:37.076Z,4.00
2019-04-21T15:51:09.323Z,3.73
2019-04-21T15:53:43.720Z,3.70
2019-04-21T15:56:33.518Z,3.90
2019-04-21T15:59:06.498Z,4.97
2019-04-21T16:01:39.198Z,4.10
2019-04-21T16:04:10.670Z,3.70
2019-04-21T16:06:41.681Z,6.30
2019-04-21T16:09:14.951Z,4.40
2019-04-21T16:11:46.135Z,4.83
2019-04-21T16:14:18.560Z,4.00
2019-04-21T16:16:49.704Z,6.47
2019-04-21T16:19:20.366Z,3.90
2019-04-21T16:21:52.516Z,4.23
2019-04-21T16:24:23.591Z,4.20
2019-04-21T16:26:54.355Z,4.00
2019-04-21T16:29:25.330Z,3.93
2019-04-21T16:31:57.344Z,4.63
2019-04-21T16:34:39.026Z,4.13
2019-04-21T16:37:01.520Z,4.17
2019-04-21T16:39:33.540Z,5.63
2019-04-21T16:42:07.057Z,4.30
2019-04-21T16:44:38.764Z,4.10
2019-04-21T16:47:09.909Z,5.80
2019-04-21T16:49:40.681Z,4.30
2019-04-21T16:52:14.105Z,4.53
2019-04-21T16:54:47.738Z,3.73
2019-04-21T16:57:23.858Z,4.40
2019-04-21T16:59:56.844Z,4.23
2019-04-21T17:02:28.343Z,6.17
2019-04-21T17:05:00.442Z,4.83
2019-04-21T17:07:32.394Z,3.90
2019-04-21T17:10:04.527Z,4.80
2019-04-21T17:12:35.618Z,4.90
2019-04-21T17:15:27.426Z,4.77
2019-04-21T17:18:00.768Z,4.83
2019-04-21T17:20:28.856Z,5.37
2019-04-21T17:22:46.191Z,5.23
2019-04-21T17:25:18.226Z,4.27
2019-04-21T17:27:51.340Z,4.90
2019-04-21T17:30:22.604Z,4.60
2019-04-21T17:32:54.139Z,5.00
2019-04-21T17:35:27.008Z,4.53
2019-04-21T17:37:58.412Z,4.67
2019-04-21T17:40:29.942Z,4.23
2019-04-21T17:43:05.506Z,5.23
2019-04-21T17:45:33.616Z,4.97
2019-04-21T17:48:10.166Z,4.30
2019-04-21T17:50:37.671Z,5.10
2019-04-21T17:53:14.144Z,5.73
2019-04-21T17:56:06.356Z,4.50
2019-04-21T17:58:34.163Z,5.23
2019-04-21T18:01:32.157Z,5.50
2019-04-21T18:06:14.378Z,5.93
2019-04-21T18:08:54.826Z,5.00
2019-04-21T18:11:18.117Z,5.77
2019-04-21T18:13:41.913Z,4.83
2019-04-21T18:16:22.695Z,5.33
2019-04-21T18:18:46.630Z,6.13
2019-04-21T18:21:19.087Z,6.00
2019-04-21T18:24:03.011Z,6.07
2019-04-21T18:26:35.688Z,5.53
2019-04-21T18:28:59.152Z,5.67
2019-04-21T18:31:36.467Z,5.63
2019-04-21T18:34:12.710Z,6.07
2019-04-21T18:37:05.529Z,5.97
2019-04-21T18:39:57.463Z,6.07
2019-04-21T18:42:37.165Z,5.57
2019-04-21T18:45:34.095Z,5.93
2019-04-21T18:48:01.635Z,5.50
2019-04-21T18:50:43.313Z,6.27
2019-04-21T18:53:41.177Z,6.97
2019-04-21T18:56:03.909Z,7.23
2019-04-21T18:58:30.805Z,5.80
2019-04-21T19:01:09.312Z,6.80
2019-04-21T19:03:41.108Z,6.63
2019-04-21T19:06:12.748Z,7.77
2019-04-21T19:08:59.251Z,5.97
2019-04-21T19:11:28.049Z,7.60
2019-04-21T19:14:30.372Z,9.07
2019-04-21T19:21:55.489Z,7.30
2019-04-21T19:24:29.478Z,7.53
2019-04-21T19:29:54.092Z,7.90
2019-04-21T19:32:05.680Z,38.33
2019-04-21T19:34:25.822Z,15.60
2019-04-21T19:36:59.285Z,16.57
2019-04-21T19:39:39.044Z,13.37
2019-04-21T19:42:07.165Z,8.90
2019-04-21T19:44:47.291Z,8.50
2019-04-21T19:47:22.862Z,9.03
2019-04-21T19:49:58.307Z,9.40
2019-04-21T19:52:15.398Z,9.17
2019-04-21T19:54:43.292Z,9.53
2019-04-21T19:57:11.222Z,10.30
2019-04-21T19:59:47.966Z,10.63
2019-04-21T20:02:16.373Z,12.20
2019-04-21T20:04:54.143Z,11.40
2019-04-21T20:07:34.266Z,11.13
2019-04-21T20:10:18.718Z,11.30
2019-04-21T20:13:02.929Z,11.60
2019-04-21T20:15:28.436Z,11.83
2019-04-21T20:17:48.348Z,12.03
2019-04-21T20:20:03.977Z,11.77
2019-04-21T20:22:40.376Z,11.20
2019-04-21T20:25:17.495Z,13.33
2019-04-21T20:27:58.291Z,13.10
2019-04-21T20:30:41.087Z,12.03
2019-04-21T20:33:20.195Z,12.70
2019-04-21T20:38:09.690Z,12.67
2019-04-21T20:40:39.700Z,14.03
2019-04-21T20:43:25.197Z,13.30
2019-04-21T20:45:54.110Z,14.13
2019-04-21T20:48:17.968Z,15.13
2019-04-21T20:51:01.935Z,15.00
2019-04-21T20:53:25.989Z,15.07
2019-04-21T20:55:58.399Z,16.07
2019-04-21T20:58:37.591Z,15.67
2019-04-21T21:01:33.018Z,16.37
2019-04-21T21:03:46.346Z,16.77
2019-04-21T21:06:08.115Z,16.83
2019-04-21T21:08:45.421Z,18.93
2019-04-21T21:11:22.254Z,19.53
2019-04-21T21:13:52.228Z,19.30
2019-04-21T21:16:35.105Z,16.73
2019-04-21T21:19:18.458Z,22.47
2019-04-21T21:21:25.037Z,19.97
2019-04-21T21:24:00.314Z,25.80
2019-04-21T21:26:31.311Z,20.53
2019-04-21T21:28:58.882Z,20.67
2019-04-21T21:31:41.471Z,20.03
2019-04-21T21:34:16.528Z,19.40
2019-04-21T21:36:50.674Z,19.23
2019-04-21T21:39:18.386Z,20.67
2019-04-21T21:41:44.134Z,19.77
2019-04-21T21:44:14.472Z,21.23
2019-04-21T21:46:53.818Z,22.13
2019-04-21T21:49:29.396Z,20.97
2019-04-21T21:51:59.219Z,23.13
2019-04-21T21:54:18.234Z,19.93
2019-04-21T21:56:50.165Z,20.00
2019-04-21T21:59:25.718Z,20.47
2019-04-21T22:01:54.871Z,19.93
2019-04-21T22:04:28.833Z,19.23
2019-04-21T22:07:04.520Z,19.87
2019-04-21T22:09:32.378Z,21.00
2019-04-21T22:12:06.357Z,19.47
2019-04-21T22:14:41.703Z,18.07
2019-04-21T22:17:24.750Z,17.97
2019-04-21T22:20:03.862Z,16.77
2019-04-21T22:22:28.553Z,16.70
2019-04-21T22:24:56.657Z,16.77
2019-04-21T22:27:18.938Z,16.97
2019-04-21T22:29:54.535Z,17.40
2019-04-21T22:32:27.538Z,16.70
2019-04-21T22:34:59.785Z,16.00
2019-04-21T22:37:41.441Z,16.23
2019-04-21T22:40:13.699Z,15.63
2019-04-21T22:42:44.372Z,15.57
2019-04-21T22:45:09.331Z,14.73
2019-04-21T22:47:42.676Z,15.37
2019-04-21T22:50:26.625Z,15.87
2019-04-21T22:53:02.094Z,14.43
2019-04-21T22:55:33.440Z,14.40
2019-04-21T22:58:03.908Z,14.57
2019-04-21T23:00:45.598Z,14.73
2019-04-21T23:03:17.343Z,14.23
2019-04-21T23:05:45.152Z,14.97
2019-04-21T23:08:17.174Z,14.33
2019-04-21T23:10:57.036Z,13.83
2019-04-21T23:13:23.473Z,14.07
2019-04-21T23:15:57.201Z,14.33
2019-04-21T23:18:39.922Z,14.40
2019-04-21T23:21:14.700Z,13.60
2019-04-21T23:23:51.763Z,14.13
2019-04-21T23:26:23.696Z,15.30
2019-04-21T23:29:00.363Z,14.10
2019-04-21T23:31:32.404Z,14.63
2019-04-21T23:33:42.030Z,14.53
2019-04-21T23:36:17.690Z,16.97
2019-04-21T23:38:49.407Z,14.80
2019-04-21T23:41:17.640Z,14.93
2019-04-21T23:43:53.782Z,15.53
2019-04-21T23:46:27.762Z,15.30
2019-04-21T23:49:07.444Z,15.53
2019-04-21T23:51:37.761Z,15.73
2019-04-21T23:53:59.524Z,15.77
2019-04-21T23:56:37.108Z,15.90
2019-04-21T23:59:06.715Z,16.23
